createdAt,value
2018-06-18T00:00:44.661Z,12.13
2018-06-18T00:03:12.723Z,8.20
2018-06-18T00:05:40.764Z,7.95
2018-06-18T00:08:08.867Z,11.22
2018-06-18T00:10:36.930Z,8.05
2018-06-18T00:13:04.975Z,6.20
2018-06-18T00:15:33.023Z,5.60
2018-06-18T00:18:01.101Z,5.53
2018-06-18T00:20:29.150Z,11.73
2018-06-18T00:22:57.220Z,6.25
2018-06-18T00:25:25.296Z,8.05
2018-06-18T00:27:53.348Z,10.08
2018-06-18T00:30:21.398Z,5.15
2018-06-18T00:32:49.435Z,6.62
2018-06-18T00:35:17.496Z,6.15
2018-06-18T00:37:45.528Z,5.42
2018-06-18T00:40:13.672Z,7.08
2018-06-18T00:42:41.718Z,5.17
2018-06-18T00:45:09.785Z,13.68
2018-06-18T00:47:37.828Z,5.95
2018-06-18T00:50:05.929Z,5.72
2018-06-18T00:52:33.975Z,5.78
2018-06-18T00:55:02.052Z,5.65
2018-06-18T00:57:30.101Z,5.92
2018-06-18T00:59:58.160Z,5.12
2018-06-18T01:02:26.204Z,5.47
2018-06-18T01:04:54.254Z,5.10
2018-06-18T01:07:22.316Z,5.20
2018-06-18T01:09:50.380Z,8.38
2018-06-18T01:12:18.453Z,9.85
2018-06-18T01:14:46.541Z,6.17
2018-06-18T01:17:14.590Z,8.00
2018-06-18T01:19:49.469Z,8.90
2018-06-18T01:22:17.517Z,5.60
2018-06-18T01:25:00.181Z,7.50
2018-06-18T01:27:28.237Z,5.55
2018-06-18T01:29:56.672Z,5.30
2018-06-18T01:32:25.142Z,5.65
2018-06-18T01:34:53.192Z,7.75
2018-06-18T01:37:21.231Z,4.37
2018-06-18T01:39:49.316Z,4.65
2018-06-18T01:44:51.751Z,5.53
2018-06-18T01:47:19.793Z,6.20
2018-06-18T01:49:47.860Z,4.05
2018-06-18T01:52:15.912Z,4.05
2018-06-18T01:54:43.956Z,4.45
2018-06-18T01:57:12.018Z,5.97
2018-06-18T01:59:40.101Z,5.85
2018-06-18T02:02:08.136Z,4.92
2018-06-18T02:04:36.179Z,7.03
2018-06-18T02:07:04.320Z,5.55
2018-06-18T02:09:32.360Z,6.80
2018-06-18T02:12:00.392Z,9.05
2018-06-18T02:14:28.431Z,6.85
2018-06-18T02:16:56.484Z,10.30
2018-06-18T02:19:24.525Z,7.40
2018-06-18T02:21:52.595Z,8.95
2018-06-18T02:24:20.640Z,7.65
2018-06-18T02:26:52.880Z,6.70
2018-06-18T02:29:26.213Z,5.67
2018-06-18T02:31:59.557Z,5.65
2018-06-18T02:34:32.988Z,8.55
2018-06-18T02:37:06.484Z,6.03
2018-06-18T02:39:38.752Z,9.25
2018-06-18T02:42:06.793Z,7.28
2018-06-18T02:44:34.844Z,10.80
2018-06-18T02:47:02.892Z,9.35
2018-06-18T02:49:30.928Z,8.95
2018-06-18T02:51:59.027Z,11.08
2018-06-18T02:54:27.063Z,7.78
2018-06-18T02:56:57.949Z,9.20
2018-06-18T02:59:25.993Z,8.18
2018-06-18T03:01:54.040Z,9.25
2018-06-18T03:04:22.085Z,8.33
2018-06-18T03:06:50.144Z,6.40
2018-06-18T03:09:18.192Z,9.20
2018-06-18T03:11:46.269Z,6.15
2018-06-18T03:14:14.316Z,4.97
2018-06-18T03:16:42.359Z,10.00
2018-06-18T03:19:15.875Z,9.50
2018-06-18T03:21:49.279Z,5.58
2018-06-18T03:24:22.762Z,10.20
2018-06-18T03:26:56.289Z,6.87
2018-06-18T03:29:26.802Z,10.70
2018-06-18T03:31:56.611Z,7.03
2018-06-18T03:34:24.651Z,9.18
2018-06-18T03:36:52.958Z,6.42
2018-06-18T03:39:21.000Z,8.45
2018-06-18T03:41:50.533Z,7.62
2018-06-18T03:44:26.679Z,14.43
2018-06-18T03:46:55.360Z,34.25
2018-06-18T03:49:23.439Z,17.20
2018-06-18T03:51:51.484Z,8.28
2018-06-18T03:54:19.535Z,6.65
2018-06-18T03:56:47.590Z,5.80
2018-06-18T03:59:15.644Z,7.87
2018-06-18T04:01:56.495Z,7.80
2018-06-18T04:04:29.931Z,14.13
2018-06-18T04:07:03.328Z,8.25
2018-06-18T04:09:36.777Z,10.88
2018-06-18T04:12:06.808Z,6.97
2018-06-18T04:14:35.227Z,8.95
2018-06-18T04:17:03.277Z,10.13
2018-06-18T04:19:31.327Z,8.20
2018-06-18T04:21:59.379Z,8.45
2018-06-18T04:24:27.404Z,9.80
2018-06-18T04:26:55.683Z,10.63
2018-06-18T04:29:23.756Z,13.30
2018-06-18T04:31:53.183Z,8.85
2018-06-18T04:34:28.049Z,7.47
2018-06-18T04:36:56.971Z,6.58
2018-06-18T04:39:25.063Z,10.18
2018-06-18T04:41:58.415Z,8.28
2018-06-18T04:44:31.897Z,9.28
2018-06-18T04:47:05.461Z,8.35
2018-06-18T04:49:38.875Z,9.13
2018-06-18T04:52:06.915Z,7.70
2018-06-18T04:54:34.955Z,11.50
2018-06-18T04:57:03.112Z,7.60
2018-06-18T04:59:32.364Z,9.65
2018-06-18T05:02:02.130Z,9.18
2018-06-18T05:04:30.232Z,10.18
2018-06-18T05:06:58.548Z,9.18
2018-06-18T05:09:33.530Z,14.05
2018-06-18T05:12:01.561Z,6.87
2018-06-18T05:14:29.618Z,8.08
2018-06-18T05:16:57.649Z,7.80
2018-06-18T05:19:25.737Z,17.82
2018-06-18T05:21:53.767Z,10.88
2018-06-18T05:24:21.820Z,8.75
2018-06-18T05:26:51.979Z,10.90
2018-06-18T05:29:21.700Z,8.98
2018-06-18T05:31:49.737Z,7.60
2018-06-18T05:34:20.245Z,9.90
2018-06-18T05:36:48.880Z,11.75
2018-06-18T05:39:16.933Z,10.82
2018-06-18T05:41:45.000Z,9.45
2018-06-18T05:44:13.060Z,9.38
2018-06-18T05:46:41.112Z,35.70
2018-06-18T05:49:09.196Z,9.70
2018-06-18T05:51:37.264Z,9.08
2018-06-18T05:54:05.345Z,12.35
2018-06-18T05:56:33.453Z,10.50
2018-06-18T05:59:08.384Z,11.20
2018-06-18T06:01:36.442Z,9.85
2018-06-18T06:04:04.507Z,14.03
2018-06-18T06:06:32.565Z,10.15
2018-06-18T06:09:00.697Z,10.65
2018-06-18T06:11:28.748Z,8.90
2018-06-18T06:13:56.824Z,8.83
2018-06-18T06:16:24.889Z,8.88
2018-06-18T06:18:52.956Z,10.28
2018-06-18T06:21:21.018Z,9.33
2018-06-18T06:23:49.043Z,8.50
2018-06-18T06:26:17.107Z,9.10
2018-06-18T06:28:45.181Z,8.83
2018-06-18T06:31:13.228Z,9.83
2018-06-18T06:33:41.273Z,8.48
2018-06-18T06:36:10.262Z,9.15
2018-06-18T06:38:38.589Z,10.23
2018-06-18T06:41:07.431Z,12.70
2018-06-18T06:43:35.489Z,9.28
2018-06-18T06:46:03.573Z,8.80
2018-06-18T06:48:31.647Z,10.03
2018-06-18T06:50:59.717Z,10.88
2018-06-18T06:53:27.804Z,11.50
2018-06-18T06:55:55.920Z,14.43
2018-06-18T06:58:23.906Z,11.25
2018-06-18T07:00:51.964Z,15.53
2018-06-18T07:03:20.004Z,12.63
2018-06-18T07:05:48.060Z,7.87
2018-06-18T07:08:16.100Z,10.08
2018-06-18T07:10:44.156Z,12.20
2018-06-18T07:13:12.206Z,19.05
2018-06-18T07:15:40.252Z,8.48
2018-06-18T07:18:08.606Z,11.93
2018-06-18T07:20:36.651Z,11.63
2018-06-18T07:23:04.712Z,11.78
2018-06-18T07:25:32.796Z,9.45
2018-06-18T07:28:00.859Z,12.18
2018-06-18T07:30:29.035Z,11.25
2018-06-18T07:32:56.960Z,11.73
2018-06-18T07:35:25.020Z,13.68
2018-06-18T07:37:53.085Z,12.80
2018-06-18T07:40:21.141Z,13.65
2018-06-18T07:42:49.193Z,10.55
2018-06-18T07:45:17.265Z,15.98
2018-06-18T07:47:45.308Z,14.58
2018-06-18T07:50:13.387Z,11.12
2018-06-18T07:52:41.428Z,9.93
2018-06-18T07:55:09.505Z,12.93
2018-06-18T07:57:37.568Z,10.00
2018-06-18T08:00:05.791Z,15.60
2018-06-18T08:02:33.857Z,11.35
2018-06-18T08:05:01.917Z,11.70
2018-06-18T08:07:29.980Z,12.28
2018-06-18T08:09:58.048Z,11.43
2018-06-18T08:12:26.107Z,14.33
2018-06-18T08:14:54.192Z,17.07
2018-06-18T08:17:22.261Z,14.00
2018-06-18T08:19:50.331Z,12.85
2018-06-18T08:22:18.389Z,12.58
2018-06-18T08:24:46.453Z,8.95
2018-06-18T08:27:14.533Z,19.05
2018-06-18T08:29:42.685Z,12.05
2018-06-18T08:32:10.773Z,15.05
2018-06-18T08:34:38.888Z,16.07
2018-06-18T08:37:06.996Z,13.00
2018-06-18T08:39:35.082Z,10.68
2018-06-18T08:42:03.153Z,22.48
2018-06-18T08:44:31.211Z,24.57
2018-06-18T08:46:59.295Z,13.62
2018-06-18T08:49:27.357Z,10.55
2018-06-18T08:52:00.755Z,17.30
2018-06-18T08:55:35.121Z,13.98
2018-06-18T08:58:08.489Z,16.75
2018-06-18T09:00:41.882Z,17.15
2018-06-18T09:03:16.169Z,19.20
2018-06-18T09:05:53.600Z,13.28
2018-06-18T09:08:23.300Z,17.10
2018-06-18T09:10:51.654Z,20.92
2018-06-18T09:13:19.745Z,15.50
2018-06-18T09:15:47.845Z,20.32
2018-06-18T09:18:15.916Z,16.45
2018-06-18T09:20:43.972Z,22.70
2018-06-18T09:23:12.056Z,21.37
2018-06-18T09:25:47.365Z,16.05
2018-06-18T09:28:16.046Z,11.55
2018-06-18T09:30:44.109Z,15.63
2018-06-18T09:33:12.181Z,12.53
2018-06-18T09:35:40.284Z,15.35
2018-06-18T09:38:08.327Z,15.32
2018-06-18T09:40:36.412Z,13.65
2018-06-18T09:43:04.502Z,19.15
2018-06-18T09:45:32.584Z,23.00
2018-06-18T09:48:00.714Z,17.07
2018-06-18T09:51:32.948Z,14.23
2018-06-18T09:54:06.390Z,12.47
2018-06-18T09:56:39.716Z,15.50
2018-06-18T09:59:13.092Z,19.52
2018-06-18T10:01:41.164Z,15.50
2018-06-18T10:04:09.241Z,20.32
2018-06-18T10:06:38.379Z,16.55
2018-06-18T10:09:08.814Z,17.15
2018-06-18T10:11:37.197Z,14.00
2018-06-18T10:14:07.834Z,14.43
2018-06-18T10:16:35.908Z,19.00
2018-06-18T10:19:03.984Z,12.37
2018-06-18T10:21:32.059Z,18.05
2018-06-18T10:24:00.154Z,24.02
2018-06-18T10:26:28.259Z,18.23
2018-06-18T10:28:56.333Z,15.93
2018-06-18T10:31:24.393Z,18.95
2018-06-18T10:33:57.989Z,13.32
2018-06-18T10:36:31.499Z,10.43
2018-06-18T10:39:05.075Z,14.47
2018-06-18T10:41:38.747Z,12.18
2018-06-18T10:44:06.734Z,13.72
2018-06-18T10:46:34.826Z,16.70
2018-06-18T10:49:02.924Z,14.63
2018-06-18T10:51:31.008Z,17.25
2018-06-18T10:53:59.085Z,11.80
2018-06-18T10:56:27.173Z,13.55
2018-06-18T10:58:55.279Z,15.95
2018-06-18T11:01:33.208Z,9.75
2018-06-18T11:04:01.900Z,20.70
2018-06-18T11:06:33.030Z,14.68
2018-06-18T11:09:01.110Z,15.55
2018-06-18T11:11:29.572Z,13.55
2018-06-18T11:13:57.660Z,14.55
2018-06-18T11:16:26.012Z,19.20
2018-06-18T11:18:59.179Z,13.32
2018-06-18T11:21:32.661Z,12.20
2018-06-18T11:25:04.629Z,15.38
2018-06-18T11:27:32.719Z,14.90
2018-06-18T11:30:00.873Z,10.85
2018-06-18T11:32:28.915Z,11.75
2018-06-18T11:34:56.993Z,9.95
2018-06-18T11:37:25.025Z,11.75
2018-06-18T11:39:53.108Z,14.28
2018-06-18T11:42:21.202Z,20.80
2018-06-18T11:44:49.268Z,16.25
2018-06-18T11:47:17.324Z,13.05
2018-06-18T11:49:45.381Z,12.28
2018-06-18T11:52:13.465Z,16.27
2018-06-18T11:54:41.546Z,12.55
2018-06-18T11:57:09.601Z,17.30
2018-06-18T11:59:42.984Z,13.58
2018-06-18T12:02:16.538Z,10.55
2018-06-18T12:04:50.066Z,9.55
2018-06-18T12:07:23.677Z,15.95
2018-06-18T12:09:52.438Z,13.60
2018-06-18T12:12:20.411Z,13.13
2018-06-18T12:14:48.456Z,15.95
2018-06-18T12:17:16.492Z,13.70
2018-06-18T12:19:44.538Z,21.42
2018-06-18T12:22:12.641Z,11.90
2018-06-18T12:24:40.683Z,15.90
2018-06-18T12:27:09.765Z,11.78
2018-06-18T12:29:37.820Z,10.03
2018-06-18T12:32:05.917Z,17.10
2018-06-18T12:34:33.996Z,17.60
2018-06-18T12:37:02.109Z,15.28
2018-06-18T12:39:30.189Z,18.10
2018-06-18T12:42:03.278Z,16.10
2018-06-18T12:44:37.767Z,14.15
2018-06-18T12:47:11.512Z,15.40
2018-06-18T12:49:45.037Z,17.80
2018-06-18T12:52:18.726Z,12.85
2018-06-18T12:54:52.433Z,21.70
2018-06-18T12:57:20.588Z,15.60
2018-06-18T12:59:48.965Z,17.48
2018-06-18T13:02:20.893Z,16.60
2018-06-18T13:04:52.815Z,22.73
2018-06-18T13:07:20.997Z,13.30
2018-06-18T13:09:49.073Z,16.95
2018-06-18T13:12:17.148Z,19.95
2018-06-18T13:14:45.244Z,15.90
2018-06-18T13:17:13.341Z,15.25
2018-06-18T13:19:41.452Z,16.17
2018-06-18T13:22:09.533Z,15.68
2018-06-18T13:24:37.730Z,22.55
2018-06-18T13:27:05.808Z,18.85
2018-06-18T13:29:33.932Z,10.23
2018-06-18T13:32:01.955Z,19.15
2018-06-18T13:34:30.013Z,18.77
2018-06-18T13:37:03.498Z,10.60
2018-06-18T13:39:37.054Z,10.60
2018-06-18T13:42:10.501Z,13.98
2018-06-18T13:44:43.980Z,15.72
2018-06-18T13:47:17.545Z,17.00
2018-06-18T13:49:51.037Z,19.42
2018-06-18T13:52:19.083Z,18.85
2018-06-18T13:54:47.144Z,17.67
2018-06-18T13:57:15.263Z,17.90
2018-06-18T13:59:43.356Z,12.55
2018-06-18T14:02:11.416Z,12.82
2018-06-18T14:04:39.468Z,21.77
2018-06-18T14:07:07.539Z,14.40
2018-06-18T14:09:35.576Z,17.70
2018-06-18T14:12:03.648Z,20.90
2018-06-18T14:14:31.698Z,16.45
2018-06-18T14:16:59.788Z,17.60
2018-06-18T14:19:33.275Z,22.75
2018-06-18T14:22:01.348Z,23.75
2018-06-18T14:24:29.387Z,23.20
2018-06-18T14:26:57.460Z,20.68
2018-06-18T14:29:30.963Z,29.05
2018-06-18T14:31:59.804Z,25.90
2018-06-18T14:34:33.344Z,40.03
2018-06-18T14:37:06.908Z,39.45
2018-06-18T14:39:40.338Z,26.45
2018-06-18T14:42:09.194Z,21.73
2018-06-18T14:44:38.220Z,23.65
2018-06-18T14:47:06.656Z,31.35
2018-06-18T14:49:34.719Z,39.73
2018-06-18T14:52:02.764Z,31.25
2018-06-18T14:54:30.864Z,42.67
2018-06-18T14:57:01.121Z,44.73
2018-06-18T14:59:39.550Z,41.65
2018-06-18T15:02:07.578Z,19.90
2018-06-18T15:04:35.646Z,34.50
2018-06-18T15:07:04.112Z,25.68
2018-06-18T15:09:32.233Z,27.25
2018-06-18T15:12:00.249Z,27.48
2018-06-18T15:14:28.300Z,30.50
2018-06-18T15:16:56.408Z,28.55
2018-06-18T15:19:24.480Z,24.05
2018-06-18T15:21:56.217Z,30.40
2018-06-18T15:24:36.397Z,35.88
2018-06-18T15:27:04.488Z,22.73
2018-06-18T15:29:32.524Z,30.90
2018-06-18T15:32:00.636Z,19.80
2018-06-18T15:34:28.720Z,27.37
2018-06-18T15:36:56.830Z,19.07
2018-06-18T15:39:24.909Z,20.52
2018-06-18T15:41:52.951Z,20.48
2018-06-18T15:44:21.060Z,21.60
2018-06-18T15:46:49.223Z,23.85
2018-06-18T15:49:17.369Z,27.98
2018-06-18T15:51:45.517Z,23.70
2018-06-18T15:54:13.602Z,20.25
2018-06-18T15:56:41.696Z,28.92
2018-06-18T15:59:09.763Z,23.42
2018-06-18T16:01:37.924Z,16.80
2018-06-18T16:04:06.381Z,21.37
2018-06-18T16:06:34.428Z,24.65
2018-06-18T16:09:02.568Z,22.50
2018-06-18T16:11:30.585Z,20.00
2018-06-18T16:13:58.644Z,21.00
2018-06-18T16:16:26.697Z,17.48
2018-06-18T16:18:54.797Z,21.55
2018-06-18T16:21:22.917Z,16.35
2018-06-18T16:23:51.633Z,21.93
2018-06-18T16:26:19.792Z,20.40
2018-06-18T16:28:47.848Z,22.85
2018-06-18T16:31:15.896Z,19.62
2018-06-18T16:33:44.384Z,21.50
2018-06-18T16:36:12.441Z,24.67
2018-06-18T16:38:40.508Z,22.55
2018-06-18T16:41:08.565Z,27.50
2018-06-18T16:43:36.997Z,139.75
2018-06-18T16:46:05.357Z,198.80
2018-06-18T16:48:33.414Z,50.48
2018-06-18T16:51:01.548Z,33.90
2018-06-18T16:53:29.616Z,29.98
2018-06-18T16:55:57.656Z,42.15
2018-06-18T16:58:25.717Z,44.45
2018-06-18T17:00:53.766Z,23.05
2018-06-18T17:03:21.808Z,23.55
2018-06-18T17:05:50.164Z,30.20
2018-06-18T17:08:18.209Z,28.77
2018-06-18T17:10:46.267Z,27.13
2018-06-18T17:13:14.322Z,26.57
2018-06-18T17:15:42.500Z,24.80
2018-06-18T17:18:10.549Z,23.35
2018-06-18T17:20:38.609Z,26.00
2018-06-18T17:23:06.667Z,28.75
2018-06-18T17:25:34.752Z,31.48
2018-06-18T17:28:02.837Z,26.02
2018-06-18T17:30:30.918Z,24.80
2018-06-18T17:32:58.961Z,28.07
2018-06-18T17:35:27.032Z,22.13
2018-06-18T17:37:55.367Z,15.93
2018-06-18T17:40:23.396Z,16.12
2018-06-18T17:42:51.472Z,17.05
2018-06-18T17:45:19.544Z,15.10
2018-06-18T17:47:47.622Z,27.50
2018-06-18T17:50:15.668Z,19.42
2018-06-18T17:52:43.720Z,22.22
2018-06-18T17:55:11.793Z,19.87
2018-06-18T17:57:39.865Z,16.35
2018-06-18T18:00:07.940Z,28.60
2018-06-18T18:02:36.013Z,27.10
2018-06-18T18:05:04.109Z,26.27
2018-06-18T18:07:32.192Z,27.70
2018-06-18T18:10:00.356Z,31.12
2018-06-18T18:12:28.419Z,70.80
2018-06-18T18:14:56.488Z,54.55
2018-06-18T18:17:24.560Z,37.58
2018-06-18T18:19:52.637Z,28.07
2018-06-18T18:22:20.688Z,30.57
2018-06-18T18:24:48.753Z,27.80
2018-06-18T18:27:16.813Z,20.05
2018-06-18T18:29:44.872Z,26.37
2018-06-18T18:32:12.972Z,24.57
2018-06-18T18:34:41.056Z,20.35
2018-06-18T18:37:09.122Z,21.30
2018-06-18T18:39:37.192Z,20.62
2018-06-18T18:42:05.307Z,19.67
2018-06-18T18:44:33.377Z,16.95
2018-06-18T18:47:01.432Z,20.80
2018-06-18T18:49:29.492Z,17.05
2018-06-18T18:51:57.584Z,18.77
2018-06-18T18:54:40.591Z,21.65
2018-06-18T18:57:18.878Z,16.87
2018-06-18T18:59:46.943Z,13.03
2018-06-18T19:02:15.053Z,12.10
2018-06-18T19:04:58.243Z,12.00
2018-06-18T19:07:32.178Z,17.27
2018-06-18T19:10:20.255Z,17.30
2018-06-18T19:12:48.648Z,23.38
2018-06-18T19:15:16.731Z,16.67
2018-06-18T19:17:44.811Z,19.23
2018-06-18T19:20:28.760Z,16.95
2018-06-18T19:22:56.847Z,16.32
2018-06-18T19:25:24.908Z,17.00
2018-06-18T19:27:52.993Z,11.40
2018-06-18T19:30:21.060Z,11.10
2018-06-18T19:32:49.693Z,17.05
2018-06-18T19:35:17.772Z,17.40
2018-06-18T19:37:49.129Z,17.05
2018-06-18T19:40:18.993Z,15.10
2018-06-18T19:42:51.160Z,12.40
2018-06-18T19:45:20.989Z,13.30
2018-06-18T19:47:53.264Z,14.83
2018-06-18T19:50:21.317Z,10.25
2018-06-18T19:52:49.416Z,11.25
2018-06-18T19:55:21.569Z,14.13
2018-06-18T19:57:49.648Z,12.20
2018-06-18T20:00:18.901Z,12.98
2018-06-18T20:02:48.525Z,14.28
2018-06-18T20:05:16.702Z,13.53
2018-06-18T20:07:54.781Z,11.38
2018-06-18T20:10:38.206Z,7.45
2018-06-18T20:13:06.271Z,10.08
2018-06-18T20:15:34.320Z,5.78
2018-06-18T20:18:02.383Z,9.55
2018-06-18T20:20:30.440Z,12.68
2018-06-18T20:22:58.497Z,9.75
2018-06-18T20:25:30.253Z,7.62
2018-06-18T20:27:59.141Z,11.83
2018-06-18T20:30:27.204Z,13.20
2018-06-18T20:32:55.276Z,9.00
2018-06-18T20:35:27.045Z,11.90
2018-06-18T20:37:55.128Z,11.50
2018-06-18T20:40:23.186Z,8.68
2018-06-18T20:42:51.404Z,11.22
2018-06-18T20:45:19.488Z,10.28
2018-06-18T20:47:47.536Z,9.10
2018-06-18T20:50:15.603Z,10.63
2018-06-18T20:52:43.666Z,12.28
2018-06-18T20:55:11.729Z,10.00
2018-06-18T20:57:39.773Z,9.33
2018-06-18T21:00:07.959Z,11.18
2018-06-18T21:02:36.013Z,9.58
2018-06-18T21:05:04.077Z,9.65
2018-06-18T21:07:32.389Z,11.63
2018-06-18T21:10:00.549Z,7.60
2018-06-18T21:12:28.602Z,11.48
2018-06-18T21:14:56.657Z,7.30
2018-06-18T21:17:24.708Z,8.75
2018-06-18T21:19:52.782Z,11.22
2018-06-18T21:22:20.840Z,14.28
2018-06-18T21:24:48.967Z,10.03
2018-06-18T21:27:17.036Z,10.18
2018-06-18T21:29:45.097Z,11.65
2018-06-18T21:32:13.140Z,10.65
2018-06-18T21:34:41.202Z,14.33
2018-06-18T21:37:09.244Z,11.88
2018-06-18T21:39:37.317Z,14.45
2018-06-18T21:42:05.459Z,13.18
2018-06-18T21:44:45.027Z,13.90
2018-06-18T21:47:13.068Z,13.15
2018-06-18T21:49:41.128Z,10.93
2018-06-18T21:52:09.168Z,9.78
2018-06-18T21:54:37.254Z,8.83
2018-06-18T21:57:05.307Z,9.85
2018-06-18T21:59:33.352Z,10.15
2018-06-18T22:02:01.423Z,14.00
2018-06-18T22:04:29.465Z,10.13
2018-06-18T22:06:57.537Z,13.88
2018-06-18T22:09:25.596Z,11.93
2018-06-18T22:11:54.892Z,15.35
2018-06-18T22:14:23.662Z,10.43
2018-06-18T22:16:51.714Z,10.93
2018-06-18T22:19:19.781Z,10.13
2018-06-18T22:21:47.916Z,10.43
2018-06-18T22:24:15.961Z,10.15
2018-06-18T22:26:44.057Z,15.00
2018-06-18T22:29:12.985Z,14.43
2018-06-18T22:31:41.052Z,8.75
2018-06-18T22:34:09.103Z,13.90
2018-06-18T22:36:37.149Z,15.98
2018-06-18T22:39:07.940Z,11.40
2018-06-18T22:41:36.097Z,14.20
2018-06-18T22:44:04.227Z,12.85
2018-06-18T22:46:32.288Z,15.55
2018-06-18T22:49:00.344Z,17.52
2018-06-18T22:51:28.405Z,16.00
2018-06-18T22:53:56.507Z,12.07
2018-06-18T22:56:24.516Z,10.82
2018-06-18T22:58:52.568Z,10.80
2018-06-18T23:01:20.620Z,7.47
2018-06-18T23:03:48.689Z,13.25
2018-06-18T23:06:16.756Z,12.10
2018-06-18T23:08:44.829Z,14.60
2018-06-18T23:11:12.902Z,16.97
2018-06-18T23:13:40.948Z,13.93
2018-06-18T23:16:09.525Z,16.05
2018-06-18T23:18:37.580Z,11.40
2018-06-18T23:21:05.655Z,17.05
2018-06-18T23:23:33.725Z,15.98
2018-06-18T23:26:01.794Z,15.53
2018-06-18T23:28:38.890Z,14.50
2018-06-18T23:31:06.989Z,11.08
2018-06-18T23:33:35.061Z,14.45
2018-06-18T23:36:03.217Z,10.25
2018-06-18T23:38:31.278Z,15.70
2018-06-18T23:40:59.397Z,12.78
2018-06-18T23:43:27.440Z,7.97
2018-06-18T23:45:55.519Z,19.85
2018-06-18T23:48:23.568Z,16.25
2018-06-18T23:50:51.617Z,14.18
2018-06-18T23:53:19.764Z,15.80
2018-06-18T23:55:47.980Z,14.45
2018-06-18T23:58:16.049Z,19.20
